Time;durP1;ratioP1;P1;durP2;ratioP2;P2;SDS_P1;SDS_P2;PMS_P1;PMS_P2;Temp;Humidity;BMP_temperature;BMP_pressure;BME280_temperature;BME280_humidity;BME280_pressure;Samples;Min_cycle;Max_cycle;Signal;HPM_P1;HPM_P2
2023/12/30 00:02:19;;;;;;;60.13;26.95;;;;;;;1.26;100.00;97819.72;5117128;27;20038;-80
2023/12/30 00:04:45;;;;;;;60.35;27.52;;;;;;;1.28;100.00;97830.22;5117015;27;20105;-81
2023/12/30 00:07:11;;;;;;;84.72;36.03;;;;;;;1.25;100.00;97833.81;5112654;27;20042;-82
2023/12/30 00:09:37;;;;;;;95.80;38.55;;;;;;;1.25;100.00;97828.53;5113229;27;20076;-81
2023/12/30 00:12:03;;;;;;;101.40;39.20;;;;;;;1.26;100.00;97832.03;5117056;27;20030;-81
2023/12/30 00:14:29;;;;;;;114.78;44.20;;;;;;;1.22;100.00;97823.31;5133017;27;20034;-82
2023/12/30 00:16:54;;;;;;;84.75;34.72;;;;;;;1.09;100.00;97821.84;5134120;27;20042;-81
2023/12/30 00:19:20;;;;;;;73.70;30.60;;;;;;;1.02;100.00;97828.13;5116784;27;20031;-81
2023/12/30 00:21:46;;;;;;;69.22;29.10;;;;;;;1.00;100.00;97817.63;5113598;27;20041;-81
2023/12/30 00:24:11;;;;;;;76.10;30.13;;;;;;;1.01;100.00;97823.75;5111046;27;20463;-79
2023/12/30 00:26:37;;;;;;;64.00;27.25;;;;;;;0.93;100.00;97825.66;5133650;27;20056;-80
2023/12/30 00:29:02;;;;;;;65.03;24.75;;;;;;;0.91;100.00;97820.44;5132880;27;20030;-81
2023/12/30 00:31:29;;;;;;;64.97;25.80;;;;;;;0.92;100.00;97818.69;5116754;27;20474;-80
2023/12/30 00:34:00;;;;;;;70.60;25.60;;;;;;;0.97;100.00;97829.97;5116907;27;20022;-80
2023/12/30 00:36:26;;;;;;;48.45;23.42;;;;;;;0.92;100.00;97823.94;5114790;27;20757;-80
2023/12/30 00:38:55;;;;;;;57.78;23.88;;;;;;;0.90;100.00;97820.47;5109427;27;20056;-80
2023/12/30 00:41:25;;;;;;;52.88;23.20;;;;;;;0.87;100.00;97828.41;5116824;27;20080;-81
2023/12/30 00:43:51;;;;;;;63.85;26.15;;;;;;;0.83;100.00;97821.50;5115172;27;20030;-81
2023/12/30 00:46:19;;;;;;;56.92;23.30;;;;;;;0.71;100.00;97808.56;5109017;27;20038;-81
2023/12/30 00:48:45;;;;;;;60.33;22.85;;;;;;;0.76;100.00;97822.50;5133946;27;20109;-81
2023/12/30 00:51:11;;;;;;;50.33;22.17;;;;;;;0.76;100.00;97827.75;5116264;27;20034;-81
2023/12/30 00:53:36;;;;;;;60.03;23.23;;;;;;;0.74;100.00;97824.31;5133453;27;20030;-81
2023/12/30 00:56:02;;;;;;;56.88;25.75;;;;;;;0.77;100.00;97840.88;5126306;27;20070;-81
2023/12/30 00:58:28;;;;;;;60.60;24.98;;;;;;;0.77;100.00;97834.78;5111626;27;20476;-82
2023/12/30 01:00:53;;;;;;;57.63;23.60;;;;;;;0.75;100.00;97837.41;5138365;27;20026;-82
2023/12/30 01:03:19;;;;;;;52.45;23.88;;;;;;;0.68;100.00;97833.16;5118138;27;20030;-80
2023/12/30 01:05:45;;;;;;;55.58;22.80;;;;;;;0.67;100.00;97830.56;5120501;27;20019;-81
2023/12/30 01:08:11;;;;;;;52.75;23.48;;;;;;;0.66;100.00;97841.97;5117313;27;20084;-81
2023/12/30 01:10:37;;;;;;;83.80;33.00;;;;;;;0.73;100.00;97838.34;5112815;27;20060;-81
2023/12/30 01:13:03;;;;;;;55.47;25.17;;;;;;;0.64;100.00;97831.50;5118878;27;20103;-80
2023/12/30 01:15:29;;;;;;;63.58;27.48;;;;;;;0.63;100.00;97831.50;5134237;27;20038;-80
2023/12/30 01:17:55;;;;;;;91.18;34.22;;;;;;;0.64;100.00;97834.13;5114934;27;20030;-80
2023/12/30 01:20:20;;;;;;;71.85;31.08;;;;;;;0.70;100.00;97839.28;5137088;27;20082;-80
2023/12/30 01:22:46;;;;;;;69.28;29.52;;;;;;;0.66;100.00;97841.97;5118562;27;20022;-80
2023/12/30 01:25:11;;;;;;;71.13;29.27;;;;;;;0.74;100.00;97840.09;5128723;27;20076;-81
2023/12/30 01:27:37;;;;;;;72.57;30.30;;;;;;;0.72;100.00;97836.59;5136092;27;20535;-80
2023/12/30 01:30:03;;;;;;;84.85;34.03;;;;;;;0.76;100.00;97827.75;5111498;27;20055;-80
2023/12/30 01:32:28;;;;;;;78.80;35.63;;;;;;;0.81;100.00;97820.63;5136826;27;20050;-81
2023/12/30 01:34:54;;;;;;;85.25;34.50;;;;;;;0.81;100.00;97828.53;5135847;27;20027;-80
2023/12/30 01:37:20;;;;;;;88.60;36.75;;;;;;;0.78;100.00;97825.97;5136656;27;20474;-81
2023/12/30 01:39:45;;;;;;;94.57;38.15;;;;;;;0.64;100.00;97818.34;5119807;27;20019;-80
2023/12/30 01:42:11;;;;;;;64.78;28.75;;;;;;;0.65;100.00;97811.31;5119798;27;20038;-81
2023/12/30 01:44:37;;;;;;;81.95;30.85;;;;;;;0.55;100.00;97814.09;5136817;27;20050;-81
2023/12/30 01:47:02;;;;;;;65.45;28.15;;;;;;;0.46;100.00;97814.25;5112832;27;20438;-81
2023/12/30 01:49:28;;;;;;;56.78;25.05;;;;;;;0.37;100.00;97803.91;5117524;27;20118;-81
2023/12/30 01:51:54;;;;;;;63.20;26.45;;;;;;;0.38;100.00;97808.28;5113249;27;20034;-81
2023/12/30 01:54:20;;;;;;;63.53;27.13;;;;;;;0.41;100.00;97821.38;5119460;27;20076;-81
2023/12/30 01:56:49;;;;;;;78.63;30.80;;;;;;;0.37;100.00;97811.78;5119598;27;20087;-81
2023/12/30 01:59:15;;;;;;;64.18;27.77;;;;;;;0.40;100.00;97810.91;5119029;27;20088;-81
2023/12/30 02:01:40;;;;;;;75.70;31.40;;;;;;;0.33;100.00;97806.63;5111793;27;20027;-81
2023/12/30 02:04:06;;;;;;;72.80;31.08;;;;;;;0.32;100.00;97803.13;5136447;27;20126;-81
2023/12/30 02:06:32;;;;;;;75.43;33.13;;;;;;;0.41;100.00;97812.59;5115400;27;20092;-81
2023/12/30 02:08:57;;;;;;;65.00;31.02;;;;;;;0.37;100.00;97808.31;5133660;27;20023;-81
2023/12/30 02:11:23;;;;;;;71.90;29.60;;;;;;;0.41;100.00;97805.59;5107400;27;20511;-81
2023/12/30 02:13:49;;;;;;;71.97;31.13;;;;;;;0.42;100.00;97804.72;5106361;27;20113;-80
2023/12/30 02:16:14;;;;;;;77.05;32.35;;;;;;;0.45;100.00;97802.03;5098912;27;20023;-79
2023/12/30 02:18:40;;;;;;;70.15;31.30;;;;;;;0.49;100.00;97802.84;5133899;27;20110;-80
2023/12/30 02:21:06;;;;;;;78.00;31.85;;;;;;;0.46;100.00;97809.00;5107000;27;20030;-81
2023/12/30 02:23:32;;;;;;;65.80;29.15;;;;;;;0.43;100.00;97802.94;5115345;27;20065;-80
2023/12/30 02:25:57;;;;;;;59.28;26.13;;;;;;;0.24;100.00;97794.50;5107022;27;20057;-80
2023/12/30 02:28:23;;;;;;;63.70;26.63;;;;;;;0.09;100.00;97781.63;5133974;27;20030;-81
2023/12/30 02:30:48;;;;;;;55.70;25.85;;;;;;;0.18;100.00;97794.63;5115483;27;20616;-81
2023/12/30 02:33:14;;;;;;;60.30;26.67;;;;;;;0.14;100.00;97800.81;5134070;27;20031;-80
2023/12/30 02:35:43;;;;;;;53.50;23.13;;;;;;;0.12;100.00;97796.47;5103889;27;20027;-80
2023/12/30 02:38:09;;;;;;;51.30;24.20;;;;;;;0.09;100.00;97802.66;5099953;27;20031;-81
2023/12/30 02:40:35;;;;;;;48.13;21.13;;;;;;;0.00;100.00;97789.69;5115420;27;20030;-81
2023/12/30 02:43:01;;;;;;;42.38;20.98;;;;;;;0.00;100.00;97794.94;5098387;27;20023;-80
2023/12/30 02:45:26;;;;;;;44.92;20.67;;;;;;;0.03;100.00;97797.50;5115540;27;20027;-80
2023/12/30 02:47:52;;;;;;;45.67;21.15;;;;;;;0.07;100.00;97790.41;5106436;27;20049;-81
2023/12/30 02:50:17;;;;;;;46.10;20.00;;;;;;;0.05;100.00;97789.59;5108864;27;20379;-79
2023/12/30 02:52:43;;;;;;;45.30;18.85;;;;;;;0.04;100.00;97793.97;5115123;27;20034;-81
2023/12/30 02:55:09;;;;;;;52.58;20.15;;;;;;;0.11;100.00;97802.63;5102844;28;20452;-81
2023/12/30 02:57:34;;;;;;;44.25;18.70;;;;;;;0.09;100.00;97786.91;5129549;27;20118;-80
2023/12/30 03:00:00;;;;;;;41.50;18.00;;;;;;;0.04;100.00;97786.06;5130904;27;20027;-80
2023/12/30 03:02:28;;;;;;;39.13;17.85;;;;;;;0.02;100.00;97793.13;5106511;27;20171;-80
2023/12/30 03:04:54;;;;;;;43.15;18.65;;;;;;;0.02;100.00;97785.25;5111109;27;20038;-82
2023/12/30 03:07:19;;;;;;;49.55;18.63;;;;;;;0.08;100.00;97794.78;5119648;27;20034;-80
2023/12/30 03:09:45;;;;;;;40.22;18.48;;;;;;;0.05;100.00;97792.22;5126562;27;20034;-82
2023/12/30 03:12:11;;;;;;;39.42;18.13;;;;;;;-0.01;100.00;97795.81;5127438;27;20022;-80
2023/12/30 03:14:36;;;;;;;48.75;18.13;;;;;;;-0.09;100.00;97781.91;5118139;27;20567;-81
2023/12/30 03:17:02;;;;;;;40.25;17.77;;;;;;;-0.02;100.00;97794.94;5117794;27;20030;-81
2023/12/30 03:19:28;;;;;;;41.67;18.73;;;;;;;-0.03;100.00;97795.81;5131775;27;20045;-81
2023/12/30 03:21:54;;;;;;;40.33;18.23;;;;;;;-0.16;100.00;97790.81;5117098;27;20035;-81
2023/12/30 03:24:20;;;;;;;41.20;18.63;;;;;;;-0.10;100.00;97807.34;5117889;27;20029;-81
2023/12/30 03:26:45;;;;;;;39.88;18.23;;;;;;;-0.09;100.00;97802.94;5117525;27;20125;-80
2023/12/30 03:29:11;;;;;;;40.47;17.77;;;;;;;-0.09;100.00;97806.44;5129552;27;20478;-81
2023/12/30 03:31:37;;;;;;;52.42;22.95;;;;;;;-0.10;100.00;97795.97;5133236;27;20034;-81
2023/12/30 03:34:02;;;;;;;51.47;21.98;;;;;;;-0.08;100.00;97802.06;5119374;27;20030;-80
2023/12/30 03:36:28;;;;;;;44.60;20.23;;;;;;;-0.13;100.00;97807.41;5109226;27;20034;-81
2023/12/30 03:38:54;;;;;;;46.45;20.58;;;;;;;-0.08;100.00;97809.94;5108798;27;20038;-80
2023/12/30 03:41:19;;;;;;;44.50;18.30;;;;;;;-0.11;100.00;97810.88;5109189;27;20113;-79
2023/12/30 03:43:45;;;;;;;49.10;21.20;;;;;;;-0.09;100.00;97800.31;5134743;27;20081;-80
2023/12/30 03:46:11;;;;;;;36.90;17.42;;;;;;;-0.05;100.00;97795.00;5117504;27;20030;-82
2023/12/30 03:48:37;;;;;;;48.30;18.67;;;;;;;0.04;100.00;97804.47;5111857;27;20438;-80
2023/12/30 03:51:05;;;;;;;41.65;18.85;;;;;;;0.01;100.00;97796.66;5111631;27;20125;-80
2023/12/30 03:53:31;;;;;;;54.25;25.10;;;;;;;0.06;100.00;97799.22;5126485;27;20453;-81
2023/12/30 03:55:57;;;;;;;64.68;26.05;;;;;;;-0.03;100.00;97787.06;5117056;27;20110;-81
2023/12/30 03:58:23;;;;;;;50.08;24.10;;;;;;;0.06;100.00;97800.09;5110024;27;20554;-81
2023/12/30 04:00:48;;;;;;;56.50;23.17;;;;;;;0.06;100.00;97792.19;5113749;27;20109;-82
2023/12/30 04:03:14;;;;;;;55.38;24.90;;;;;;;0.13;100.00;97812.22;5105161;27;20125;-79
2023/12/30 04:05:41;;;;;;;61.47;25.13;;;;;;;0.10;100.00;97804.38;5102604;27;20026;-80
2023/12/30 04:08:06;;;;;;;66.70;27.27;;;;;;;0.12;100.00;97801.75;5088277;27;20486;-80
2023/12/30 04:10:32;;;;;;;72.05;29.65;;;;;;;0.15;100.00;97802.56;5117079;27;20049;-80
2023/12/30 04:12:58;;;;;;;64.68;26.25;;;;;;;0.22;100.00;97804.16;5133837;27;20508;-80
2023/12/30 04:15:23;;;;;;;172.68;62.60;;;;;;;0.28;100.00;97806.69;5117281;27;20026;-80
2023/12/30 04:17:49;;;;;;;99.70;37.45;;;;;;;0.28;100.00;97808.44;5132491;27;20031;-80
2023/12/30 04:20:14;;;;;;;81.15;33.55;;;;;;;0.32;100.00;97799.63;5114097;27;20114;-80
2023/12/30 04:22:40;;;;;;;95.75;37.28;;;;;;;0.30;100.00;97812.81;5100620;27;20083;-80
2023/12/30 04:25:06;;;;;;;103.78;38.78;;;;;;;0.22;100.00;97812.06;5111094;27;20082;-80
2023/12/30 04:27:32;;;;;;;83.50;32.88;;;;;;;0.17;100.00;97806.03;5134085;27;20018;-80
2023/12/30 04:29:57;;;;;;;74.65;30.42;;;;;;;0.15;100.00;97814.84;5117250;27;20458;-80
2023/12/30 04:32:26;;;;;;;69.10;29.40;;;;;;;0.11;100.00;97811.38;5106608;27;20031;-80
2023/12/30 04:34:52;;;;;;;71.40;29.92;;;;;;;0.09;100.00;97815.81;5106864;28;20037;-80
2023/12/30 04:37:19;;;;;;;70.57;28.52;;;;;;;0.14;100.00;97821.84;5130403;27;20113;-79
2023/12/30 04:39:45;;;;;;;62.85;27.13;;;;;;;0.17;100.00;97824.44;5129310;27;20031;-79
2023/12/30 04:42:11;;;;;;;54.65;24.52;;;;;;;0.13;100.00;97820.09;5116377;27;20091;-79
2023/12/30 04:44:36;;;;;;;60.75;26.13;;;;;;;0.18;100.00;97823.53;5133654;27;20023;-79
2023/12/30 04:47:02;;;;;;;53.80;24.85;;;;;;;0.12;100.00;97817.53;5130632;27;20023;-80
2023/12/30 04:49:28;;;;;;;59.13;24.83;;;;;;;0.16;100.00;97827.94;5122507;27;20114;-80
2023/12/30 04:51:53;;;;;;;61.13;25.92;;;;;;;0.09;100.00;97818.44;5116201;27;20100;-80
2023/12/30 04:54:19;;;;;;;72.47;31.38;;;;;;;0.15;100.00;97833.25;5114512;27;20035;-80
2023/12/30 04:56:44;;;;;;;64.13;26.25;;;;;;;0.14;100.00;97816.59;5111648;27;20233;-81
2023/12/30 04:59:11;;;;;;;58.30;21.25;;;;;;;0.18;100.00;97823.53;5125235;27;20027;-80
2023/12/30 05:01:37;;;;;;;68.10;25.40;;;;;;;0.15;100.00;97823.59;5109227;27;20019;-80
2023/12/30 05:04:03;;;;;;;39.17;18.27;;;;;;;0.05;100.00;97824.63;5101984;27;20030;-80
2023/12/30 05:06:29;;;;;;;34.10;16.92;;;;;;;-0.04;100.00;97809.88;5110952;28;20051;-80
2023/12/30 05:08:55;;;;;;;53.58;24.20;;;;;;;-0.02;100.00;97817.72;5113090;27;20019;-81
2023/12/30 05:11:23;;;;;;;47.22;24.80;;;;;;;0.04;100.00;97822.88;5116098;27;20073;-81
2023/12/30 05:13:49;;;;;;;42.95;21.42;;;;;;;0.05;100.00;97822.00;5133692;27;20023;-80
2023/12/30 05:16:15;;;;;;;46.42;22.92;;;;;;;0.02;100.00;97832.56;5116071;27;20447;-81
2023/12/30 05:18:41;;;;;;;46.03;22.25;;;;;;;0.06;100.00;97829.00;5116041;27;20027;-81
2023/12/30 05:21:16;;;;;;;50.13;21.80;;;;;;;0.06;100.00;97829.00;5114128;27;20030;-81
2023/12/30 05:23:42;;;;;;;49.65;21.23;;;;;;;-0.03;100.00;97818.63;5111675;27;20107;-81
2023/12/30 05:26:09;;;;;;;49.10;21.80;;;;;;;-0.02;100.00;97833.50;5116141;27;20035;-81
2023/12/30 05:28:35;;;;;;;48.03;22.70;;;;;;;-0.01;100.00;97832.63;5114111;27;20026;-81
2023/12/30 05:31:00;;;;;;;46.28;21.10;;;;;;;-0.02;100.00;97838.75;5113547;27;20474;-81
2023/12/30 05:33:27;;;;;;;48.55;23.90;;;;;;;-0.07;100.00;97835.34;5115909;27;20039;-81
2023/12/30 05:35:52;;;;;;;68.63;27.10;;;;;;;-0.10;100.00;97835.41;5116237;27;20167;-82
2023/12/30 05:38:18;;;;;;;54.45;25.60;;;;;;;-0.06;100.00;97840.56;5115959;27;20118;-81
2023/12/30 05:40:44;;;;;;;70.60;26.08;;;;;;;-0.01;100.00;97853.66;5115855;27;20035;-81
2023/12/30 05:43:09;;;;;;;56.63;25.42;;;;;;;0.04;100.00;97843.91;5105965;27;20600;-80
2023/12/30 05:45:35;;;;;;;52.15;24.17;;;;;;;0.06;100.00;97849.16;5117855;27;20034;-79
2023/12/30 05:48:02;;;;;;;63.75;25.02;;;;;;;0.06;100.00;97834.28;5137532;27;20049;-81
2023/12/30 05:50:28;;;;;;;51.88;24.05;;;;;;;0.15;100.00;97843.75;5119816;27;20103;-80
2023/12/30 05:52:54;;;;;;;64.47;24.67;;;;;;;0.24;100.00;97848.88;5136903;27;20123;-80
2023/12/30 05:55:20;;;;;;;54.25;24.83;;;;;;;0.17;100.00;97827.06;5116801;27;20027;-80
2023/12/30 05:57:47;;;;;;;54.17;22.77;;;;;;;0.25;100.00;97840.94;5118248;27;20038;-78
2023/12/30 06:00:14;;;;;;;70.03;30.80;;;;;;;0.28;100.00;97846.16;5111302;27;20023;-81
2023/12/30 06:02:40;;;;;;;79.47;35.15;;;;;;;0.34;100.00;97846.03;5120070;27;20023;-80
2023/12/30 06:05:06;;;;;;;91.72;39.85;;;;;;;0.28;100.00;97851.41;5137278;27;20026;-81
2023/12/30 06:07:31;;;;;;;102.65;45.33;;;;;;;0.25;100.00;97845.31;5118887;27;20046;-79
2023/12/30 06:09:57;;;;;;;122.80;46.08;;;;;;;0.21;100.00;97828.75;5114883;27;20033;-81
2023/12/30 06:12:23;;;;;;;122.53;50.85;;;;;;;0.26;100.00;97853.22;5116391;27;20031;-81
2023/12/30 06:14:49;;;;;;;113.57;48.72;;;;;;;0.24;100.00;97849.75;5118336;27;20054;-79
2023/12/30 06:17:15;;;;;;;112.78;46.88;;;;;;;0.28;100.00;97854.03;5119814;27;20057;-80
2023/12/30 06:19:40;;;;;;;100.70;44.83;;;;;;;0.21;100.00;97841.91;5113394;27;20485;-80
2023/12/30 06:22:06;;;;;;;95.95;42.97;;;;;;;0.26;100.00;97858.47;5116311;27;20030;-81
2023/12/30 06:24:33;;;;;;;97.03;42.03;;;;;;;0.32;100.00;97853.09;5114832;27;20143;-81
2023/12/30 06:26:58;;;;;;;86.90;39.38;;;;;;;0.33;100.00;97860.13;5118932;27;20546;-79
2023/12/30 06:29:26;;;;;;;83.50;38.50;;;;;;;0.28;100.00;97854.03;5136619;27;20026;-79
2023/12/30 06:31:52;;;;;;;95.25;39.30;;;;;;;0.38;100.00;97854.75;5136485;27;20067;-80
2023/12/30 06:34:18;;;;;;;106.45;44.75;;;;;;;0.25;100.00;97840.94;5118834;27;20094;-80
2023/12/30 06:36:45;;;;;;;100.72;41.45;;;;;;;0.28;100.00;97861.94;5117701;27;20122;-80
2023/12/30 06:39:13;;;;;;;88.35;39.75;;;;;;;0.24;100.00;97859.38;5132596;27;20456;-79
2023/12/30 06:41:39;;;;;;;82.03;37.63;;;;;;;0.30;100.00;97868.06;5135869;27;20041;-80
2023/12/30 06:44:05;;;;;;;80.70;36.28;;;;;;;0.27;100.00;97860.22;5119307;27;20035;-81
2023/12/30 06:46:31;;;;;;;81.82;34.35;;;;;;;0.39;100.00;97859.13;5118677;27;20037;-81
2023/12/30 06:48:56;;;;;;;74.13;34.40;;;;;;;0.51;100.00;97866.81;5128050;27;20083;-79
2023/12/30 06:51:22;;;;;;;114.10;52.85;;;;;;;0.54;100.00;97865.00;5119229;27;20019;-77
2023/12/30 06:53:47;;;;;;;83.97;34.88;;;;;;;0.68;100.00;97872.63;5126660;27;20022;-77
2023/12/30 06:56:13;;;;;;;107.82;45.55;;;;;;;0.76;100.00;97872.50;5134217;27;20451;-75
2023/12/30 06:58:41;;;;;;;135.57;53.65;;;;;;;0.96;100.00;97873.00;5114645;27;20471;-75
2023/12/30 07:01:07;;;;;;;112.15;44.97;;;;;;;1.15;100.00;97877.03;5115116;27;20038;-74
2023/12/30 07:03:32;;;;;;;122.50;45.72;;;;;;;1.18;100.00;97869.06;5130159;27;20101;-74
2023/12/30 07:05:58;;;;;;;123.18;45.35;;;;;;;1.28;100.00;97875.00;5134881;27;20035;-75
2023/12/30 07:08:24;;;;;;;246.73;65.63;;;;;;;1.58;100.00;97877.00;5118006;27;20027;-75
2023/12/30 07:10:52;;;;;;;159.82;52.65;;;;;;;2.11;100.00;97871.41;5153066;27;20034;-75
2023/12/30 07:13:18;;;;;;;162.75;54.05;;;;;;;2.40;100.00;97878.63;5126857;27;20039;-74
2023/12/30 07:15:43;;;;;;;107.55;46.30;;;;;;;2.61;100.00;97877.25;5136378;27;20023;-74
2023/12/30 07:18:09;;;;;;;100.40;40.45;;;;;;;3.05;100.00;97883.97;5134634;27;20027;-75
2023/12/30 07:20:35;;;;;;;79.10;33.28;;;;;;;3.36;100.00;97873.44;5135041;27;20463;-75
2023/12/30 07:23:02;;;;;;;78.85;35.83;;;;;;;3.56;100.00;97873.75;5124328;27;20557;-74
2023/12/30 07:25:27;;;;;;;75.32;34.83;;;;;;;3.40;100.00;97865.38;5111666;27;20027;-74
2023/12/30 07:27:53;;;;;;;73.65;32.72;;;;;;;3.60;100.00;97876.25;5125355;27;20443;-74
2023/12/30 07:30:19;;;;;;;77.07;35.22;;;;;;;4.20;100.00;97872.66;5132563;27;20023;-74
2023/12/30 07:32:44;;;;;;;71.60;32.65;;;;;;;4.58;100.00;97861.72;5130778;27;20525;-74
2023/12/30 07:35:10;;;;;;;82.95;34.13;;;;;;;4.86;100.00;97869.59;5133251;27;20027;-74
2023/12/30 07:37:35;;;;;;;85.68;38.53;;;;;;;5.01;100.00;97850.50;5153239;27;20519;-74
2023/12/30 07:40:02;;;;;;;92.35;41.88;;;;;;;5.77;100.00;97853.88;5134294;27;20121;-74
2023/12/30 07:42:28;;;;;;;112.90;51.78;;;;;;;6.13;100.00;97856.06;5116579;27;20562;-74
2023/12/30 07:44:53;;;;;;;158.07;71.78;;;;;;;6.84;100.00;97867.28;5133886;27;20068;-74
2023/12/30 07:47:19;;;;;;;134.57;62.08;;;;;;;7.59;100.00;97862.22;5153386;27;20432;-75
2023/12/30 07:49:46;;;;;;;113.45;54.92;;;;;;;7.60;100.00;97858.59;5134528;27;20031;-74
2023/12/30 07:52:12;;;;;;;107.65;53.13;;;;;;;7.64;100.00;97846.91;5152724;27;20041;-74
2023/12/30 07:54:38;;;;;;;116.30;53.65;;;;;;;7.23;100.00;97840.75;5117057;27;20405;-74
2023/12/30 07:57:03;;;;;;;110.10;51.55;;;;;;;7.41;100.00;97849.75;5117212;27;20391;-74
2023/12/30 07:59:29;;;;;;;114.90;53.72;;;;;;;7.75;100.00;97857.94;5104901;27;20037;-74
2023/12/30 08:01:56;;;;;;;119.32;56.50;;;;;;;7.80;100.00;97866.56;5130714;27;20524;-75
2023/12/30 08:04:22;;;;;;;127.88;55.28;;;;;;;8.63;100.00;97875.94;5152843;27;20019;-75
2023/12/30 08:06:48;;;;;;;112.32;50.28;;;;;;;8.62;100.00;97860.88;5107878;27;20603;-75
2023/12/30 08:09:14;;;;;;;103.72;52.33;;;;;;;8.57;100.00;97859.38;5113297;27;20116;-75
2023/12/30 08:11:39;;;;;;;103.00;49.75;;;;;;;8.53;100.00;97864.00;5113511;27;20115;-75
2023/12/30 08:14:05;;;;;;;101.15;49.28;;;;;;;7.87;100.00;97865.38;5113536;27;20028;-75
2023/12/30 08:16:34;;;;;;;98.88;50.58;;;;;;;8.47;100.00;97879.41;5076585;28;20031;-75
2023/12/30 08:18:59;;;;;;;105.13;49.83;;;;;;;9.29;100.00;97869.97;5092851;28;20030;-74
2023/12/30 08:21:25;;;;;;;103.97;47.70;;;;;;;9.64;100.00;97855.59;5093264;28;20032;-74
2023/12/30 08:23:51;;;;;;;104.45;51.40;;;;;;;9.66;100.00;97856.38;5092972;28;20034;-74
2023/12/30 08:26:16;;;;;;;109.63;51.90;;;;;;;10.29;100.00;97849.38;5111013;28;20035;-74
2023/12/30 08:28:42;;;;;;;95.72;48.80;;;;;;;10.52;100.00;97845.41;5111147;28;20030;-74
2023/12/30 08:31:07;;;;;;;90.22;44.83;;;;;;;10.67;100.00;97858.78;5092690;28;20027;-74
2023/12/30 08:33:33;;;;;;;88.88;45.17;;;;;;;10.49;100.00;97858.97;5092737;28;20118;-76
2023/12/30 08:35:59;;;;;;;83.40;42.95;;;;;;;11.16;100.00;97846.06;5092526;28;20064;-74
2023/12/30 08:38:24;;;;;;;87.88;42.83;;;;;;;11.58;100.00;97844.41;5092366;28;20019;-74
2023/12/30 08:40:50;;;;;;;79.72;42.00;;;;;;;11.83;91.01;97832.13;5091076;27;20023;-75
2023/12/30 08:43:16;;;;;;;76.10;41.40;;;;;;;12.34;88.46;97827.94;5131128;27;20031;-75
2023/12/30 08:45:41;;;;;;;71.25;40.17;;;;;;;12.91;81.39;97817.91;5112857;28;20079;-76
2023/12/30 08:48:07;;;;;;;73.03;36.70;;;;;;;13.45;75.23;97826.75;5131357;28;20015;-76
2023/12/30 08:50:33;;;;;;;76.63;37.83;;;;;;;13.04;78.70;97831.38;5112706;28;20332;-75
2023/12/30 08:52:58;;;;;;;77.88;40.95;;;;;;;13.08;75.97;97824.84;5112614;28;20496;-74
2023/12/30 08:55:24;;;;;;;95.97;47.03;;;;;;;12.73;79.58;97832.56;5095532;28;20023;-76
2023/12/30 08:57:50;;;;;;;93.57;46.20;;;;;;;13.28;78.54;97832.44;5112818;28;20029;-77
2023/12/30 09:00:16;;;;;;;103.18;56.45;;;;;;;13.12;76.86;97829.06;5112529;28;20027;-73
2023/12/30 09:02:46;;;;;;;110.82;56.92;;;;;;;13.40;75.94;97828.91;5112503;28;20413;-74
2023/12/30 09:05:17;;;;;;;100.07;54.85;;;;;;;13.69;72.73;97828.72;5112331;28;20031;-75
2023/12/30 09:07:43;;;;;;;128.88;68.55;;;;;;;13.42;72.64;97818.91;5082117;28;20044;-75
2023/12/30 09:10:09;;;;;;;109.03;58.30;;;;;;;13.57;71.49;97819.66;5092175;28;20034;-77
2023/12/30 09:12:34;;;;;;;111.60;59.38;;;;;;;13.53;74.12;97815.47;5111077;28;20023;-77
2023/12/30 09:15:00;;;;;;;99.10;50.28;;;;;;;14.02;71.16;97811.06;5095411;28;20128;-75
2023/12/30 09:17:26;;;;;;;85.63;45.03;;;;;;;13.82;70.18;97808.03;5111967;27;20042;-76
2023/12/30 09:19:51;;;;;;;76.03;40.15;;;;;;;13.76;71.78;97811.16;5134686;27;20417;-74
2023/12/30 09:22:17;;;;;;;73.43;43.75;;;;;;;14.09;69.81;97801.56;5098600;28;20482;-75
2023/12/30 09:24:43;;;;;;;84.35;44.00;;;;;;;14.83;66.45;97789.81;5124036;27;20045;-76
2023/12/30 09:27:08;;;;;;;72.22;40.15;;;;;;;14.99;64.81;97781.44;5115302;27;20555;-75
2023/12/30 09:29:34;;;;;;;64.57;35.45;;;;;;;15.05;65.43;97786.38;5089116;28;20027;-75
2023/12/30 09:32:00;;;;;;;67.75;39.30;;;;;;;15.03;65.06;97785.63;5079014;28;20012;-75
2023/12/30 09:34:25;;;;;;;78.07;40.22;;;;;;;15.26;65.21;97778.50;5095809;28;20027;-75
2023/12/30 09:36:51;;;;;;;85.72;44.22;;;;;;;15.78;61.20;97775.31;5095807;28;20102;-75
2023/12/30 09:39:17;;;;;;;85.70;46.30;;;;;;;16.87;58.25;97759.09;5095517;28;20035;-76
2023/12/30 09:41:42;;;;;;;97.88;56.03;;;;;;;17.16;55.75;97752.09;5113719;28;20414;-75
2023/12/30 09:44:09;;;;;;;93.43;51.28;;;;;;;16.85;55.43;97752.97;5114042;28;20027;-75
2023/12/30 09:46:35;;;;;;;91.47;54.33;;;;;;;17.24;54.92;97744.19;5113558;28;20034;-74
2023/12/30 09:49:02;;;;;;;;;;;;;;;17.68;53.50;97736.81;5092315;27;20027;-75
2023/12/30 09:51:29;;;;;;;80.07;43.78;;;;;;;17.74;53.43;97734.41;5115758;27;20018;-74
2023/12/30 09:53:55;;;;;;;45.22;27.98;;;;;;;17.70;51.94;97727.56;5097642;27;20500;-75
2023/12/30 09:56:21;;;;;;;45.35;27.63;;;;;;;16.43;55.77;97730.34;5114518;27;20497;-74
2023/12/30 09:58:48;;;;;;;42.75;24.23;;;;;;;16.28;57.30;97734.31;5114291;27;20390;-74
2023/12/30 10:01:13;;;;;;;37.95;20.48;;;;;;;16.45;57.35;97736.50;5115610;27;20109;-74
2023/12/30 10:03:40;;;;;;;39.63;22.38;;;;;;;17.25;54.62;97726.97;5080211;28;20059;-74
2023/12/30 10:06:06;;;;;;;34.80;20.15;;;;;;;17.67;53.01;97726.97;5097532;27;20031;-73
2023/12/30 10:08:32;;;;;;;31.67;18.77;;;;;;;17.51;53.05;97713.88;5129137;27;20030;-73
2023/12/30 10:10:57;;;;;;;32.17;18.42;;;;;;;16.91;54.85;97720.03;5136118;27;20023;-74
2023/12/30 10:13:26;;;;;;;40.28;23.00;;;;;;;17.40;53.19;97711.28;5136028;27;20421;-74
2023/12/30 10:15:54;;;;;;;44.33;24.13;;;;;;;18.19;50.92;97694.25;5136384;27;20030;-74
2023/12/30 10:18:20;;;;;;;52.90;30.20;;;;;;;17.97;52.31;97709.84;5135834;27;20058;-74
2023/12/30 10:20:46;;;;;;;44.20;26.20;;;;;;;18.89;49.75;97690.53;5135489;27;20053;-74
2023/12/30 10:23:12;;;;;;;;;;;;;;;19.39;48.60;97693.91;5136547;27;20030;-73
2023/12/30 10:25:38;;;;;;;;;;;;;;;19.17;48.25;97697.78;5118944;27;20373;-74
2023/12/30 10:28:04;;;;;;;;;;;;;;;19.25;48.39;97689.81;5154842;27;20354;-74
2023/12/30 10:30:30;;;;;;;52.75;32.10;;;;;;;18.52;49.25;97684.13;5109609;27;19958;-74
2023/12/30 10:33:10;;;;;;;57.65;32.88;;;;;;;18.83;49.39;97683.81;5118251;27;20052;-74
2023/12/30 10:35:37;;;;;;;61.67;36.35;;;;;;;20.16;46.68;97677.34;5116970;27;20392;-75
2023/12/30 10:38:03;;;;;;;64.15;40.72;;;;;;;19.11;47.94;97686.66;5135461;27;20081;-74
2023/12/30 10:40:30;;;;;;;73.00;40.55;;;;;;;19.43;48.07;97681.81;5151877;27;20018;-74
2023/12/30 10:42:57;;;;;;;75.28;41.72;;;;;;;19.62;48.04;97670.91;5118044;27;20486;-74
2023/12/30 10:45:23;;;;;;;67.50;37.78;;;;;;;20.05;47.19;97669.41;5135788;27;20075;-74
2023/12/30 10:47:50;;;;;;;58.42;35.25;;;;;;;20.36;46.12;97666.28;5135001;27;20102;-74
2023/12/30 10:50:16;;;;;;;59.08;34.70;;;;;;;18.63;48.63;97676.69;5135448;27;20083;-73
2023/12/30 10:52:50;;;;;;;56.15;33.60;;;;;;;18.51;50.39;97677.84;5135083;27;20481;-74
2023/12/30 10:55:17;;;;;;;77.70;44.15;;;;;;;18.82;49.82;97668.59;5118232;27;20079;-75
2023/12/30 10:57:51;;;;;;;59.53;33.38;;;;;;;19.83;47.89;97657.09;5135349;27;20019;-74
2023/12/30 11:00:20;;;;;;;60.08;32.97;;;;;;;19.61;48.44;97658.31;5135299;27;20159;-75
2023/12/30 11:02:47;;;;;;;60.75;32.80;;;;;;;19.66;47.90;97657.84;5134796;27;20062;-74
2023/12/30 11:05:18;;;;;;;55.58;30.85;;;;;;;20.17;47.17;97649.19;5112861;27;20111;-74
2023/12/30 11:07:44;;;;;;;55.05;31.55;;;;;;;20.01;47.51;97644.41;5132758;27;20038;-75
2023/12/30 11:10:30;;;;;;;68.70;31.77;;;;;;;20.10;47.58;97650.78;5134985;27;20027;-75
2023/12/30 11:12:56;;;;;;;58.03;32.17;;;;;;;20.29;47.53;97653.44;5117028;27;20032;-74